createdAt,value
2023-04-30T00:02:29.521Z,3.65
2023-04-30T00:05:22.740Z,3.00
2023-04-30T00:08:15.798Z,3.40
2023-04-30T00:11:08.741Z,3.00
2023-04-30T00:14:03.242Z,3.67
2023-04-30T00:16:56.936Z,3.33
2023-04-30T00:19:50.695Z,3.03
2023-04-30T00:22:43.550Z,3.85
2023-04-30T00:25:36.711Z,3.63
2023-04-30T00:28:29.425Z,3.50
2023-04-30T00:31:24.213Z,3.05
2023-04-30T00:34:17.938Z,3.53
2023-04-30T00:37:10.610Z,3.40
2023-04-30T00:40:03.739Z,4.35
2023-04-30T00:42:56.787Z,3.58
2023-04-30T00:45:50.238Z,4.05
2023-04-30T00:48:45.077Z,3.58
2023-04-30T00:51:41.589Z,3.65
2023-04-30T00:54:34.702Z,3.90
2023-04-30T00:57:28.318Z,3.03
2023-04-30T01:00:21.682Z,3.90
2023-04-30T01:03:15.086Z,3.28
2023-04-30T01:06:10.047Z,3.97
2023-04-30T01:09:03.745Z,3.88
2023-04-30T01:12:05.458Z,3.95
2023-04-30T01:15:09.494Z,3.78
2023-04-30T01:18:07.492Z,4.25
2023-04-30T01:21:05.645Z,3.60
2023-04-30T01:24:26.407Z,3.38
2023-04-30T01:27:40.708Z,3.78
2023-04-30T01:30:36.629Z,3.47
2023-04-30T01:33:29.952Z,3.30
2023-04-30T01:36:42.112Z,3.25
2023-04-30T01:39:47.976Z,3.80
2023-04-30T01:42:48.175Z,3.58
2023-04-30T01:45:56.552Z,3.85
2023-04-30T01:48:59.096Z,3.30
2023-04-30T01:52:02.463Z,3.42
2023-04-30T01:55:01.463Z,3.75
2023-04-30T01:57:58.568Z,3.55
2023-04-30T02:00:53.512Z,3.35
2023-04-30T02:03:46.796Z,3.40
2023-04-30T02:06:41.294Z,3.75
2023-04-30T02:09:34.691Z,3.50
2023-04-30T02:12:30.027Z,3.47
2023-04-30T02:15:23.103Z,3.88
2023-04-30T02:18:18.077Z,3.67
2023-04-30T02:21:11.837Z,3.97
2023-04-30T02:24:04.754Z,4.07
2023-04-30T02:26:57.389Z,3.53
2023-04-30T02:29:51.236Z,3.97
2023-04-30T02:32:44.957Z,4.07
2023-04-30T02:35:38.990Z,3.85
2023-04-30T02:38:32.115Z,3.55
2023-04-30T02:41:26.670Z,3.78
2023-04-30T02:44:19.908Z,3.67
2023-04-30T02:47:12.900Z,3.30
2023-04-30T02:50:06.869Z,4.03
2023-04-30T02:53:01.075Z,3.50
2023-04-30T02:55:53.633Z,3.75
2023-04-30T02:58:46.836Z,3.78
2023-04-30T03:01:40.172Z,4.18
2023-04-30T03:04:33.583Z,3.20
2023-04-30T03:07:26.694Z,3.42
2023-04-30T03:10:21.436Z,3.50
2023-04-30T03:13:14.606Z,4.13
2023-04-30T03:16:07.943Z,4.00
2023-04-30T03:19:00.803Z,3.40
2023-04-30T03:21:53.974Z,3.80
2023-04-30T03:24:46.608Z,3.50
2023-04-30T03:27:40.963Z,4.18
2023-04-30T03:30:33.833Z,3.75
2023-04-30T03:33:27.268Z,3.92
2023-04-30T03:36:21.013Z,3.78
2023-04-30T03:39:13.602Z,3.90
2023-04-30T03:42:07.210Z,3.65
2023-04-30T03:45:02.221Z,3.97
2023-04-30T03:47:55.803Z,4.13
2023-04-30T03:50:48.886Z,3.58
2023-04-30T03:53:41.971Z,3.53
2023-04-30T03:56:35.054Z,4.32
2023-04-30T03:59:27.583Z,4.10
2023-04-30T04:02:22.479Z,4.05
2023-04-30T04:05:16.287Z,3.90
2023-04-30T04:08:09.736Z,3.80
2023-04-30T04:11:02.847Z,4.70
2023-04-30T04:13:55.970Z,3.95
2023-04-30T04:16:48.925Z,3.60
2023-04-30T04:19:43.155Z,4.18
2023-04-30T04:22:35.925Z,4.35
2023-04-30T04:25:29.148Z,4.43
2023-04-30T04:28:22.049Z,3.35
2023-04-30T04:31:14.803Z,3.63
2023-04-30T04:34:07.725Z,4.53
2023-04-30T04:37:02.242Z,3.40
2023-04-30T04:39:56.300Z,3.30
2023-04-30T04:42:51.503Z,3.75
2023-04-30T04:45:45.076Z,3.85
2023-04-30T04:48:37.913Z,3.42
2023-04-30T04:51:32.220Z,3.58
2023-04-30T04:54:30.279Z,3.95
2023-04-30T04:57:23.760Z,3.55
2023-04-30T05:00:17.814Z,3.40
2023-04-30T05:03:11.458Z,3.75
2023-04-30T05:06:04.739Z,3.50
2023-04-30T05:08:57.826Z,3.45
2023-04-30T05:11:52.328Z,3.97
2023-04-30T05:14:46.014Z,3.50
2023-04-30T05:17:39.043Z,3.33
2023-04-30T05:20:32.079Z,3.28
2023-04-30T05:23:24.921Z,3.90
2023-04-30T05:26:17.844Z,3.67
2023-04-30T05:29:12.439Z,3.95
2023-04-30T05:32:08.107Z,3.50
2023-04-30T05:35:01.652Z,3.20
2023-04-30T05:37:55.092Z,3.45
2023-04-30T05:40:48.001Z,3.88
2023-04-30T05:43:40.876Z,3.17
2023-04-30T05:46:36.208Z,3.17
2023-04-30T05:49:28.985Z,3.70
2023-04-30T05:52:22.060Z,2.95
2023-04-30T05:55:14.979Z,3.15
2023-04-30T05:58:07.919Z,2.90
2023-04-30T06:01:00.932Z,3.30
2023-04-30T06:03:55.268Z,3.10
2023-04-30T06:06:48.813Z,3.40
2023-04-30T06:09:41.960Z,3.38
2023-04-30T06:12:38.128Z,3.10
2023-04-30T06:15:31.253Z,3.08
2023-04-30T06:18:24.248Z,2.92
2023-04-30T06:21:18.455Z,2.80
2023-04-30T06:24:14.199Z,2.85
2023-04-30T06:27:06.752Z,2.60
2023-04-30T06:30:00.907Z,3.00
2023-04-30T06:32:54.040Z,2.85
2023-04-30T06:35:47.481Z,2.83
2023-04-30T06:38:42.844Z,3.10
2023-04-30T06:41:35.888Z,2.80
2023-04-30T06:44:29.002Z,3.00
2023-04-30T06:47:21.861Z,2.30
2023-04-30T06:50:15.840Z,2.90
2023-04-30T06:53:08.786Z,2.50
2023-04-30T06:56:04.075Z,2.90
2023-04-30T06:58:56.840Z,2.33
2023-04-30T07:01:50.156Z,2.25
2023-04-30T07:04:43.016Z,2.88
2023-04-30T07:07:36.226Z,2.30
2023-04-30T07:10:29.603Z,2.28
2023-04-30T07:13:24.206Z,2.70
2023-04-30T07:16:17.885Z,2.60
2023-04-30T07:19:11.233Z,2.50
2023-04-30T07:22:04.547Z,2.20
2023-04-30T07:24:57.797Z,2.58
2023-04-30T07:27:52.824Z,2.40
2023-04-30T07:30:47.180Z,2.05
2023-04-30T07:33:40.351Z,2.70
2023-04-30T07:36:34.218Z,2.63
2023-04-30T07:39:27.160Z,2.78
2023-04-30T07:42:20.098Z,2.50
2023-04-30T07:45:13.437Z,3.03
2023-04-30T07:48:08.395Z,3.05
2023-04-30T07:51:02.274Z,3.40
2023-04-30T07:53:55.169Z,2.35
2023-04-30T07:56:48.827Z,2.45
2023-04-30T07:59:41.844Z,2.45
2023-04-30T08:02:35.404Z,2.58
2023-04-30T08:05:30.279Z,2.75
2023-04-30T08:08:23.284Z,2.83
2023-04-30T08:11:16.362Z,2.60
2023-04-30T08:14:09.923Z,2.70
2023-04-30T08:17:03.519Z,3.28
2023-04-30T08:19:57.372Z,2.90
2023-04-30T08:22:52.847Z,2.47
2023-04-30T08:25:46.316Z,2.88
2023-04-30T08:28:39.052Z,2.83
2023-04-30T08:31:32.724Z,2.70
2023-04-30T08:34:26.132Z,2.78
2023-04-30T08:37:18.941Z,2.50
2023-04-30T08:40:14.115Z,2.78
2023-04-30T08:43:08.776Z,2.58
2023-04-30T08:46:02.992Z,2.45
2023-04-30T08:48:56.783Z,2.90
2023-04-30T08:51:50.743Z,2.78
2023-04-30T08:54:46.048Z,2.40
2023-04-30T08:57:40.442Z,2.75
2023-04-30T09:00:34.819Z,2.45
2023-04-30T09:03:28.874Z,2.35
2023-04-30T09:06:22.052Z,2.20
2023-04-30T09:09:16.819Z,2.05
2023-04-30T09:12:18.851Z,2.28
2023-04-30T09:15:14.593Z,1.90
2023-04-30T09:18:13.290Z,1.77
2023-04-30T09:21:08.924Z,2.13
2023-04-30T09:24:04.211Z,2.10
2023-04-30T09:26:57.196Z,2.10
2023-04-30T09:29:50.784Z,1.70
2023-04-30T09:32:57.448Z,2.00
2023-04-30T09:35:51.101Z,1.98
2023-04-30T09:38:44.809Z,1.92
2023-04-30T09:41:38.353Z,1.52
2023-04-30T09:44:33.387Z,1.98
2023-04-30T09:47:31.446Z,1.60
2023-04-30T09:50:27.729Z,1.77
2023-04-30T09:53:21.812Z,2.10
2023-04-30T09:56:20.171Z,1.90
2023-04-30T09:59:13.676Z,1.52
2023-04-30T10:02:08.446Z,1.65
2023-04-30T10:05:02.525Z,1.63
2023-04-30T10:07:57.938Z,1.55
2023-04-30T10:10:55.356Z,1.58
2023-04-30T10:13:53.900Z,1.30
2023-04-30T10:16:55.534Z,1.70
2023-04-30T10:19:53.241Z,1.55
2023-04-30T10:22:47.723Z,1.52
2023-04-30T10:25:42.904Z,1.40
2023-04-30T10:28:36.293Z,1.55
2023-04-30T10:31:30.531Z,1.65
2023-04-30T10:34:36.470Z,1.48
2023-04-30T10:37:37.375Z,1.80
2023-04-30T10:40:30.362Z,1.58
2023-04-30T10:43:25.377Z,1.50
2023-04-30T10:46:24.876Z,1.55
2023-04-30T10:49:26.955Z,1.73
2023-04-30T10:52:28.535Z,1.30
2023-04-30T10:55:22.567Z,1.40
2023-04-30T10:58:27.081Z,1.20
2023-04-30T11:01:20.742Z,1.20
2023-04-30T11:04:14.606Z,1.40
2023-04-30T11:07:12.135Z,1.48
2023-04-30T11:10:08.550Z,1.40
2023-04-30T11:13:05.634Z,1.48
2023-04-30T11:16:05.746Z,1.10
2023-04-30T11:19:07.078Z,1.35
2023-04-30T11:22:20.559Z,1.40
2023-04-30T11:25:14.620Z,1.10
2023-04-30T11:28:08.068Z,1.40
2023-04-30T11:31:02.178Z,1.30
2023-04-30T11:33:57.396Z,1.17
2023-04-30T11:36:51.036Z,1.10
2023-04-30T11:39:44.393Z,0.77
2023-04-30T11:42:39.378Z,1.30
2023-04-30T11:45:32.505Z,1.00
2023-04-30T11:48:25.197Z,0.93
2023-04-30T11:51:21.629Z,0.85
2023-04-30T11:54:15.909Z,0.95
2023-04-30T11:57:08.916Z,1.05
2023-04-30T12:00:10.973Z,1.00
2023-04-30T12:03:04.796Z,1.10
2023-04-30T12:05:58.280Z,0.70
2023-04-30T12:08:53.764Z,1.23
2023-04-30T12:11:49.661Z,0.98
2023-04-30T12:14:43.521Z,1.00
2023-04-30T12:17:36.604Z,0.93
2023-04-30T12:20:32.712Z,1.10
2023-04-30T12:23:26.837Z,1.10
2023-04-30T12:26:21.956Z,0.88
2023-04-30T12:29:17.342Z,0.90
2023-04-30T12:32:10.438Z,0.75
2023-04-30T12:35:04.912Z,0.93
2023-04-30T12:38:03.901Z,0.88
2023-04-30T12:40:58.199Z,1.10
2023-04-30T12:43:52.399Z,1.10
2023-04-30T12:46:46.482Z,1.00
2023-04-30T12:49:40.963Z,0.77
2023-04-30T12:52:34.508Z,0.55
2023-04-30T12:55:29.146Z,1.00
2023-04-30T12:58:23.355Z,0.88
2023-04-30T13:01:19.339Z,0.80
2023-04-30T13:04:12.044Z,0.90
2023-04-30T13:07:05.974Z,0.93
2023-04-30T13:09:59.347Z,1.10
2023-04-30T13:12:54.802Z,1.00
2023-04-30T13:15:48.425Z,0.80
2023-04-30T13:18:43.325Z,1.30
2023-04-30T13:21:36.414Z,0.80
2023-04-30T13:24:31.123Z,1.10
2023-04-30T13:27:24.229Z,1.00
2023-04-30T13:30:17.155Z,0.82
2023-04-30T13:33:11.678Z,0.90
2023-04-30T13:36:07.381Z,0.93
2023-04-30T13:39:01.040Z,0.80
2023-04-30T13:41:54.602Z,0.93
2023-04-30T13:44:49.834Z,1.00
2023-04-30T13:47:43.683Z,1.10
2023-04-30T13:50:37.667Z,0.60
2023-04-30T13:53:33.338Z,1.00
2023-04-30T13:56:26.770Z,1.00
2023-04-30T13:59:20.129Z,1.00
2023-04-30T14:02:13.325Z,1.05
2023-04-30T14:05:07.295Z,0.98
2023-04-30T14:08:00.112Z,0.90
2023-04-30T14:10:54.830Z,0.98
2023-04-30T14:13:48.606Z,1.00
2023-04-30T14:16:42.479Z,0.68
2023-04-30T14:19:35.721Z,1.20
2023-04-30T14:22:29.382Z,0.90
2023-04-30T14:25:22.294Z,1.10
2023-04-30T14:28:16.721Z,1.00
2023-04-30T14:31:10.533Z,0.80
2023-04-30T14:34:03.566Z,1.10
2023-04-30T14:36:59.220Z,0.90
2023-04-30T14:39:52.859Z,0.93
2023-04-30T14:42:46.184Z,0.88
2023-04-30T14:45:41.172Z,1.10
2023-04-30T14:48:34.451Z,1.17
2023-04-30T14:51:28.743Z,0.80
2023-04-30T14:54:22.295Z,0.77
2023-04-30T14:57:15.994Z,1.00
2023-04-30T15:00:10.997Z,1.00
2023-04-30T15:03:06.039Z,1.02
2023-04-30T15:06:00.302Z,0.70
2023-04-30T15:08:53.301Z,0.82
2023-04-30T15:11:46.490Z,0.90
2023-04-30T15:14:39.685Z,0.90
2023-04-30T15:17:34.705Z,1.00
2023-04-30T15:20:29.950Z,1.00
2023-04-30T15:23:23.189Z,1.00
2023-04-30T15:26:17.093Z,0.70
2023-04-30T15:29:10.732Z,0.90
2023-04-30T15:32:05.440Z,0.90
2023-04-30T15:34:58.330Z,0.90
2023-04-30T15:37:52.804Z,1.10
2023-04-30T15:40:46.539Z,0.90
2023-04-30T15:43:39.762Z,0.90
2023-04-30T15:46:34.624Z,0.70
2023-04-30T15:49:28.061Z,0.80
2023-04-30T15:52:21.768Z,0.82
2023-04-30T15:55:17.062Z,1.00
2023-04-30T15:58:10.451Z,1.00
2023-04-30T16:01:03.687Z,0.80
2023-04-30T16:03:57.008Z,0.85
2023-04-30T16:06:50.771Z,0.88
2023-04-30T16:09:46.017Z,0.60
2023-04-30T16:12:41.331Z,0.90
2023-04-30T16:15:34.530Z,0.88
2023-04-30T16:18:29.870Z,0.90
2023-04-30T16:21:24.843Z,0.70
2023-04-30T16:24:18.475Z,0.93
2023-04-30T16:27:11.407Z,0.90
2023-04-30T16:30:07.446Z,0.82
2023-04-30T16:33:00.471Z,0.90
2023-04-30T16:35:54.576Z,1.20
2023-04-30T16:38:47.462Z,1.02
2023-04-30T16:41:40.911Z,0.98
2023-04-30T16:44:34.279Z,1.02
2023-04-30T16:47:29.271Z,1.00
2023-04-30T16:50:24.135Z,0.80
2023-04-30T16:53:17.860Z,1.10
2023-04-30T16:56:11.510Z,1.10
2023-04-30T16:59:04.418Z,1.20
2023-04-30T17:02:00.421Z,0.88
2023-04-30T17:04:55.016Z,1.08
2023-04-30T17:07:49.357Z,0.93
2023-04-30T17:10:43.032Z,1.30
2023-04-30T17:13:37.541Z,0.80
2023-04-30T17:16:30.418Z,0.80
2023-04-30T17:19:23.165Z,0.90
2023-04-30T17:22:20.130Z,0.73
2023-04-30T17:25:13.452Z,0.80
2023-04-30T17:28:06.557Z,1.05
2023-04-30T17:31:03.197Z,0.95
2023-04-30T17:33:56.535Z,1.00
2023-04-30T17:36:50.020Z,0.80
2023-04-30T17:39:45.162Z,1.00
2023-04-30T17:42:38.987Z,1.17
2023-04-30T17:45:33.011Z,0.90
2023-04-30T17:48:27.251Z,1.25
2023-04-30T17:51:20.912Z,1.08
2023-04-30T17:54:14.165Z,1.00
2023-04-30T17:57:08.940Z,0.95
2023-04-30T18:00:02.329Z,0.80
2023-04-30T18:02:55.882Z,1.10
2023-04-30T18:05:49.678Z,1.05
2023-04-30T18:08:43.046Z,1.05
2023-04-30T18:11:36.542Z,0.93
2023-04-30T18:14:32.128Z,1.00
2023-04-30T18:17:25.780Z,1.00
2023-04-30T18:20:18.765Z,0.93
2023-04-30T18:23:13.353Z,1.17
2023-04-30T18:26:07.218Z,1.17
2023-04-30T18:29:00.536Z,1.20
2023-04-30T18:31:56.605Z,1.15
2023-04-30T18:34:49.899Z,1.27
2023-04-30T18:37:43.885Z,1.20
2023-04-30T18:40:37.389Z,1.25
2023-04-30T18:43:30.931Z,1.30
2023-04-30T18:46:25.304Z,1.15
2023-04-30T18:49:20.020Z,1.13
2023-04-30T18:52:13.882Z,1.35
2023-04-30T18:55:08.592Z,1.10
2023-04-30T18:58:01.804Z,1.20
2023-04-30T19:00:57.945Z,1.25
2023-04-30T19:03:51.935Z,1.20
2023-04-30T19:06:49.714Z,1.33
2023-04-30T19:09:45.013Z,1.48
2023-04-30T19:12:38.779Z,1.27
2023-04-30T19:15:31.628Z,1.25
2023-04-30T19:18:25.067Z,1.50
2023-04-30T19:21:19.354Z,1.35
2023-04-30T19:24:14.083Z,1.25
2023-04-30T19:27:07.554Z,1.40
2023-04-30T19:30:00.436Z,1.38
2023-04-30T19:32:53.749Z,1.40
2023-04-30T19:35:49.697Z,1.45
2023-04-30T19:38:42.356Z,1.35
2023-04-30T19:41:37.284Z,1.10
2023-04-30T19:44:30.755Z,1.15
2023-04-30T19:47:24.426Z,1.60
2023-04-30T19:50:17.990Z,1.38
2023-04-30T19:53:12.767Z,1.05
2023-04-30T19:56:05.777Z,1.50
2023-04-30T19:59:00.143Z,1.50
2023-04-30T20:01:53.698Z,1.30
2023-04-30T20:04:46.750Z,1.52
2023-04-30T20:07:39.668Z,1.50
2023-04-30T20:10:34.002Z,1.17
2023-04-30T20:13:28.093Z,1.58
2023-04-30T20:16:23.188Z,1.20
2023-04-30T20:19:16.783Z,1.30
2023-04-30T20:22:13.206Z,1.17
2023-04-30T20:25:08.095Z,1.67
2023-04-30T20:28:01.483Z,1.17
2023-04-30T20:30:55.710Z,1.65
2023-04-30T20:33:50.041Z,1.10
2023-04-30T20:36:43.770Z,1.50
2023-04-30T20:39:38.681Z,1.55
2023-04-30T20:42:31.874Z,1.50
2023-04-30T20:45:24.613Z,1.40
2023-04-30T20:48:17.631Z,1.30
2023-04-30T20:51:12.182Z,1.27
2023-04-30T20:54:05.729Z,1.10
2023-04-30T20:56:58.548Z,1.20
2023-04-30T20:59:51.789Z,1.30
2023-04-30T21:02:45.056Z,1.10
2023-04-30T21:05:38.428Z,1.75
2023-04-30T21:08:33.063Z,1.48
2023-04-30T21:11:27.971Z,1.40
2023-04-30T21:14:21.231Z,1.25
2023-04-30T21:17:15.259Z,1.30
2023-04-30T21:20:10.155Z,1.35
2023-04-30T21:23:03.964Z,1.52
2023-04-30T21:25:58.030Z,1.30
2023-04-30T21:28:52.393Z,1.45
2023-04-30T21:31:45.886Z,1.63
2023-04-30T21:34:38.656Z,1.42
2023-04-30T21:37:31.970Z,1.50
2023-04-30T21:40:24.868Z,1.42
2023-04-30T21:43:19.566Z,1.35
2023-04-30T21:46:13.450Z,1.45
2023-04-30T21:49:06.734Z,1.80
2023-04-30T21:51:59.786Z,1.27
2023-04-30T21:54:52.700Z,1.70
2023-04-30T21:57:46.487Z,1.65
2023-04-30T22:00:40.954Z,1.70
2023-04-30T22:03:34.428Z,1.77
2023-04-30T22:06:28.574Z,2.20
2023-04-30T22:09:21.893Z,1.80
2023-04-30T22:12:15.398Z,1.73
2023-04-30T22:15:09.464Z,1.73
2023-04-30T22:18:04.389Z,1.77
2023-04-30T22:20:57.432Z,1.60
2023-04-30T22:23:50.896Z,1.67
2023-04-30T22:26:44.314Z,2.28
2023-04-30T22:29:37.950Z,1.88
2023-04-30T22:32:32.198Z,2.20
2023-04-30T22:35:28.646Z,1.70
2023-04-30T22:38:22.012Z,2.05
2023-04-30T22:41:14.692Z,2.20
2023-04-30T22:44:07.765Z,2.05
2023-04-30T22:47:01.885Z,2.10
2023-04-30T22:49:57.037Z,2.03
2023-04-30T22:52:54.340Z,2.00
2023-04-30T22:55:47.585Z,2.10
2023-04-30T22:58:40.582Z,1.80
2023-04-30T23:01:35.764Z,1.88
2023-04-30T23:04:28.973Z,1.88
2023-04-30T23:07:21.894Z,2.22
2023-04-30T23:10:16.237Z,2.55
2023-04-30T23:13:09.875Z,1.80
2023-04-30T23:16:05.572Z,1.83
2023-04-30T23:18:58.991Z,1.80
2023-04-30T23:21:52.047Z,1.63
2023-04-30T23:24:44.747Z,1.63
2023-04-30T23:27:39.147Z,1.75
2023-04-30T23:30:32.643Z,2.03
2023-04-30T23:33:26.570Z,1.80
2023-04-30T23:36:19.673Z,1.60
2023-04-30T23:39:13.048Z,1.73
2023-04-30T23:42:07.774Z,2.15
2023-04-30T23:45:02.301Z,1.63
2023-04-30T23:47:55.547Z,1.52
2023-04-30T23:50:48.804Z,1.65
2023-04-30T23:53:42.595Z,1.67
2023-04-30T23:56:37.158Z,1.92
2023-04-30T23:59:30.821Z,1.98
